Terminal Aerodrome Forecast
Issued by NWS Louisville, KY

Home | Current Version | Previous Version | Text Only | Print | Product List | Glossary On
Versions: 1 2 3 4 5 6 7 8 9 10 11 12 13 14 15 16 17 18
000
FTUS43 KLMK 301600 AAC
TAFLEX
TAF AMD
KLEX 301613Z 3016/3112 01012KT P6SM BKN035
     FM301900 33010KT P6SM SCT035
     FM310100 04003KT P6SM SCT250=

USA.gov is the U.S. government's official web portal to all federal, state and local government web resources and services.